createdAt,value
2022-11-22T00:02:00.208Z,8.10
2022-11-22T00:04:28.536Z,7.50
2022-11-22T00:06:56.800Z,10.90
2022-11-22T00:09:25.497Z,11.30
2022-11-22T00:11:54.757Z,10.70
2022-11-22T00:14:23.574Z,9.30
2022-11-22T00:16:57.728Z,9.90
2022-11-22T00:19:31.575Z,8.70
2022-11-22T00:22:04.330Z,6.80
2022-11-22T00:24:35.415Z,9.90
2022-11-22T00:27:03.790Z,9.00
2022-11-22T00:29:32.374Z,9.00
2022-11-22T00:32:00.866Z,10.40
2022-11-22T00:34:29.339Z,10.80
2022-11-22T00:36:57.720Z,10.00
2022-11-22T00:39:26.242Z,10.10
2022-11-22T00:41:54.687Z,10.00
2022-11-22T00:44:23.062Z,8.30
2022-11-22T00:46:51.538Z,7.90
2022-11-22T00:49:19.918Z,6.30
2022-11-22T00:51:48.300Z,8.50
2022-11-22T00:54:16.676Z,7.80
2022-11-22T00:56:45.037Z,7.80
2022-11-22T00:59:13.838Z,9.00
2022-11-22T01:01:42.432Z,7.60
2022-11-22T01:04:10.907Z,6.60
2022-11-22T01:06:39.706Z,8.60
2022-11-22T01:09:08.166Z,5.90
2022-11-22T01:11:36.423Z,7.40
2022-11-22T01:14:04.845Z,5.80
2022-11-22T01:16:33.119Z,6.60
2022-11-22T01:19:01.397Z,8.00
2022-11-22T01:21:29.578Z,8.40
2022-11-22T01:23:57.948Z,9.00
2022-11-22T01:26:26.562Z,8.80
2022-11-22T01:28:55.498Z,7.90
2022-11-22T01:31:23.684Z,8.60
2022-11-22T01:33:52.047Z,9.10
2022-11-22T01:36:21.040Z,6.10
2022-11-22T01:38:49.731Z,8.40
2022-11-22T01:41:18.093Z,3.80
2022-11-22T01:43:46.496Z,6.40
2022-11-22T01:46:37.507Z,7.30
2022-11-22T01:49:19.898Z,8.90
2022-11-22T01:51:51.463Z,10.10
2022-11-22T01:54:24.591Z,6.70
2022-11-22T01:56:58.887Z,8.70
2022-11-22T01:59:31.079Z,7.10
2022-11-22T02:02:01.322Z,6.30
2022-11-22T02:04:32.696Z,6.70
2022-11-22T02:07:13.640Z,7.60
2022-11-22T02:09:44.114Z,5.50
2022-11-22T02:12:13.795Z,9.40
2022-11-22T02:14:43.538Z,10.20
2022-11-22T02:17:11.739Z,9.20
2022-11-22T02:19:45.856Z,9.50
2022-11-22T02:22:35.802Z,9.30
2022-11-22T02:25:30.150Z,10.70
2022-11-22T02:27:59.486Z,8.40
2022-11-22T02:30:28.161Z,9.30
2022-11-22T02:32:56.659Z,6.70
2022-11-22T02:35:28.209Z,7.90
2022-11-22T02:38:06.412Z,9.70
2022-11-22T02:40:40.541Z,8.60
2022-11-22T02:43:14.511Z,7.90
2022-11-22T02:45:43.110Z,6.50
2022-11-22T02:48:14.324Z,7.20
2022-11-22T02:50:43.651Z,6.00
2022-11-22T02:53:12.572Z,7.30
2022-11-22T02:55:41.198Z,7.10
2022-11-22T02:58:09.731Z,7.10
2022-11-22T03:00:39.638Z,5.50
2022-11-22T03:03:07.977Z,7.50
2022-11-22T03:05:36.316Z,7.50
2022-11-22T03:08:04.526Z,6.40
2022-11-22T03:10:33.063Z,6.80
2022-11-22T03:13:01.441Z,6.50
2022-11-22T03:15:29.809Z,5.30
2022-11-22T03:18:02.297Z,4.50
2022-11-22T03:20:31.598Z,6.40
2022-11-22T03:23:03.348Z,5.90
2022-11-22T03:25:31.718Z,4.80
2022-11-22T03:28:00.110Z,7.50
2022-11-22T03:30:28.483Z,6.30
2022-11-22T03:32:56.753Z,5.60
2022-11-22T03:35:25.235Z,6.70
2022-11-22T03:37:53.711Z,7.40
2022-11-22T03:40:22.349Z,5.40
2022-11-22T03:42:50.630Z,5.50
2022-11-22T03:45:18.869Z,6.90
2022-11-22T03:47:47.033Z,6.20
2022-11-22T03:50:16.340Z,7.40
2022-11-22T03:52:44.537Z,6.80
2022-11-22T03:55:12.673Z,7.70
2022-11-22T03:57:40.951Z,6.50
2022-11-22T04:00:09.917Z,7.60
2022-11-22T04:02:40.126Z,4.70
2022-11-22T04:05:08.857Z,4.80
2022-11-22T04:07:37.271Z,5.10
2022-11-22T04:10:07.156Z,8.80
2022-11-22T04:12:35.927Z,6.60
2022-11-22T04:15:07.812Z,6.20
2022-11-22T04:17:41.408Z,8.30
2022-11-22T04:20:34.887Z,6.40
2022-11-22T04:23:10.437Z,8.30
2022-11-22T04:25:41.796Z,8.00
2022-11-22T04:28:11.790Z,9.90
2022-11-22T04:30:59.401Z,8.00
2022-11-22T04:33:28.141Z,7.10
2022-11-22T04:35:56.639Z,6.40
2022-11-22T04:38:25.093Z,7.50
2022-11-22T04:40:54.770Z,7.40
2022-11-22T04:43:47.936Z,8.10
2022-11-22T04:46:16.836Z,7.40
2022-11-22T04:48:45.205Z,8.40
2022-11-22T04:51:34.268Z,8.20
2022-11-22T04:54:03.043Z,8.80
2022-11-22T04:56:31.322Z,8.20
2022-11-22T04:58:59.490Z,10.50
2022-11-22T05:01:27.817Z,7.60
2022-11-22T05:03:56.255Z,8.30
2022-11-22T05:06:24.610Z,9.30
2022-11-22T05:08:52.891Z,6.10
2022-11-22T05:11:22.110Z,6.40
2022-11-22T05:13:50.807Z,5.80
2022-11-22T05:16:19.618Z,7.20
2022-11-22T05:18:59.623Z,4.90
2022-11-22T05:21:30.265Z,6.40
2022-11-22T05:23:59.058Z,7.20
2022-11-22T05:26:28.471Z,7.70
2022-11-22T05:29:00.581Z,5.60
2022-11-22T05:31:29.219Z,3.90
2022-11-22T05:33:57.877Z,8.00
2022-11-22T05:36:26.563Z,9.40
2022-11-22T05:38:55.372Z,10.60
2022-11-22T05:41:23.653Z,7.40
2022-11-22T05:43:55.613Z,13.90
2022-11-22T05:46:29.221Z,8.80
2022-11-22T05:48:59.789Z,9.00
2022-11-22T05:51:34.618Z,9.10
2022-11-22T05:54:05.034Z,5.80
2022-11-22T05:56:34.010Z,8.10
2022-11-22T05:59:02.485Z,7.80
2022-11-22T06:01:30.978Z,6.30
2022-11-22T06:03:59.430Z,8.60
2022-11-22T06:06:27.720Z,9.60
2022-11-22T06:08:57.169Z,9.10
2022-11-22T06:11:28.267Z,10.00
2022-11-22T06:14:03.642Z,9.20
2022-11-22T06:16:32.436Z,9.20
2022-11-22T06:19:01.289Z,9.50
2022-11-22T06:21:31.646Z,9.80
2022-11-22T06:24:00.702Z,8.90
2022-11-22T06:26:32.417Z,9.10
2022-11-22T06:29:04.945Z,8.10
2022-11-22T06:31:33.723Z,7.10
2022-11-22T06:34:02.830Z,6.50
2022-11-22T06:36:33.893Z,6.70
2022-11-22T06:39:05.418Z,7.90
2022-11-22T06:41:36.896Z,6.40
2022-11-22T06:44:07.380Z,5.30
2022-11-22T06:46:36.999Z,4.00
2022-11-22T06:49:06.829Z,5.70
2022-11-22T06:51:35.718Z,5.90
2022-11-22T06:54:05.196Z,4.80
2022-11-22T06:56:38.788Z,3.10
2022-11-22T06:59:10.669Z,5.20
2022-11-22T07:01:39.707Z,3.50
2022-11-22T07:04:09.399Z,5.70
2022-11-22T07:06:39.417Z,4.70
2022-11-22T07:09:12.725Z,4.70
2022-11-22T07:11:42.093Z,3.50
2022-11-22T07:14:11.815Z,4.80
2022-11-22T07:16:41.028Z,7.00
2022-11-22T07:19:11.053Z,8.00
2022-11-22T07:21:40.647Z,7.00
2022-11-22T07:24:11.991Z,7.70
2022-11-22T07:26:42.215Z,7.80
2022-11-22T07:29:11.023Z,6.40
2022-11-22T07:31:41.492Z,8.00
2022-11-22T07:34:11.138Z,7.80
2022-11-22T07:36:40.844Z,7.10
2022-11-22T07:39:10.307Z,10.40
2022-11-22T07:41:39.754Z,6.00
2022-11-22T07:44:08.442Z,7.40
2022-11-22T07:46:36.917Z,10.10
2022-11-22T07:49:05.829Z,6.30
2022-11-22T07:51:34.142Z,7.60
2022-11-22T07:54:06.397Z,8.90
2022-11-22T07:56:40.605Z,6.60
2022-11-22T07:59:09.948Z,6.80
2022-11-22T08:01:38.976Z,4.70
2022-11-22T08:04:07.312Z,6.90
2022-11-22T08:06:35.692Z,7.30
2022-11-22T08:09:13.026Z,7.90
2022-11-22T08:11:45.609Z,8.80
2022-11-22T08:14:18.531Z,6.80
2022-11-22T08:16:52.149Z,7.80
2022-11-22T08:19:20.932Z,7.80
2022-11-22T08:21:52.715Z,8.20
2022-11-22T08:24:25.675Z,8.40
2022-11-22T08:26:54.368Z,5.90
2022-11-22T08:29:23.486Z,5.90
2022-11-22T08:31:52.783Z,6.80
2022-11-22T08:34:21.861Z,5.10
2022-11-22T08:36:50.549Z,6.20
2022-11-22T08:39:19.440Z,6.10
2022-11-22T08:41:48.977Z,4.00
2022-11-22T08:44:17.527Z,5.50
2022-11-22T08:46:46.127Z,8.30
2022-11-22T08:49:14.801Z,8.60
2022-11-22T08:51:45.226Z,8.70
2022-11-22T08:54:15.448Z,7.60
2022-11-22T08:56:44.551Z,8.40
2022-11-22T08:59:13.227Z,8.50
2022-11-22T09:01:41.693Z,7.90
2022-11-22T09:04:10.927Z,10.00
2022-11-22T09:09:37.325Z,9.60
2022-11-22T09:12:07.160Z,10.40
2022-11-22T09:14:35.763Z,9.70
2022-11-22T09:17:06.076Z,9.70
2022-11-22T09:19:34.588Z,8.30
2022-11-22T09:22:03.066Z,10.60
2022-11-22T09:24:31.757Z,10.50
2022-11-22T09:27:00.203Z,7.60
2022-11-22T09:29:29.321Z,9.90
2022-11-22T09:31:59.943Z,9.40
2022-11-22T09:34:28.823Z,9.70
2022-11-22T09:36:57.636Z,8.40
2022-11-22T09:39:26.142Z,8.90
2022-11-22T09:42:19.770Z,8.90
2022-11-22T09:45:23.617Z,8.50
2022-11-22T09:48:10.603Z,6.70
2022-11-22T09:50:57.614Z,7.00
2022-11-22T09:53:36.417Z,6.50
2022-11-22T09:56:11.912Z,7.90
2022-11-22T09:58:51.803Z,8.30
2022-11-22T10:01:23.972Z,10.40
2022-11-22T10:03:55.991Z,7.20
2022-11-22T10:06:31.616Z,9.30
2022-11-22T10:09:11.641Z,8.30
2022-11-22T10:12:05.047Z,9.00
2022-11-22T10:15:03.712Z,8.90
2022-11-22T10:17:55.567Z,5.80
2022-11-22T10:20:30.107Z,7.70
2022-11-22T10:23:00.647Z,6.90
2022-11-22T10:25:44.983Z,5.60
2022-11-22T10:28:44.766Z,7.20
2022-11-22T10:31:37.149Z,10.00
2022-11-22T10:34:12.678Z,9.60
2022-11-22T10:37:24.335Z,8.50
2022-11-22T10:40:15.700Z,10.20
2022-11-22T10:43:15.010Z,7.80
2022-11-22T10:46:20.044Z,9.60
2022-11-22T10:49:40.139Z,8.00
2022-11-22T10:52:30.207Z,6.10
2022-11-22T10:55:22.519Z,4.40
2022-11-22T10:57:56.614Z,4.70
2022-11-22T11:00:26.659Z,5.70
2022-11-22T11:03:23.725Z,9.50
2022-11-22T11:06:43.461Z,5.80
2022-11-22T11:10:02.799Z,11.60
2022-11-22T11:11:55.397Z,12.40
2022-11-22T11:14:31.991Z,10.80
2022-11-22T11:17:01.680Z,11.70
2022-11-22T11:19:36.818Z,11.20
2022-11-22T11:22:08.356Z,8.90
2022-11-22T11:24:40.852Z,9.50
2022-11-22T11:27:11.766Z,11.00
2022-11-22T11:29:47.832Z,10.80
2022-11-22T11:32:20.039Z,10.70
2022-11-22T11:35:00.489Z,11.20
2022-11-22T11:37:37.263Z,11.10
2022-11-22T11:40:25.090Z,12.00
2022-11-22T11:43:18.961Z,8.90
2022-11-22T11:45:48.389Z,9.40
2022-11-22T11:48:27.288Z,12.10
2022-11-22T11:51:15.336Z,13.10
2022-11-22T11:53:53.844Z,13.10
2022-11-22T11:56:31.099Z,14.00
2022-11-22T11:59:03.909Z,11.70
2022-11-22T12:01:38.796Z,12.20
2022-11-22T12:04:23.724Z,8.30
2022-11-22T12:07:02.938Z,11.30
2022-11-22T12:09:45.256Z,11.70
2022-11-22T12:12:38.228Z,10.50
2022-11-22T12:15:19.804Z,10.60
2022-11-22T12:18:07.224Z,11.00
2022-11-22T12:21:02.951Z,13.10
2022-11-22T12:23:49.463Z,9.30
2022-11-22T12:26:21.242Z,10.70
2022-11-22T12:28:50.428Z,10.10
2022-11-22T12:31:40.300Z,12.80
2022-11-22T12:34:20.775Z,13.10
2022-11-22T12:37:06.191Z,13.90
2022-11-22T12:39:37.265Z,14.90
2022-11-22T12:42:22.684Z,12.40
2022-11-22T12:45:01.570Z,14.40
2022-11-22T12:47:37.640Z,14.40
2022-11-22T12:50:44.732Z,12.40
2022-11-22T12:53:15.877Z,10.40
2022-11-22T12:56:07.485Z,11.60
2022-11-22T12:58:54.405Z,13.30
2022-11-22T13:01:29.503Z,12.40
2022-11-22T13:04:09.894Z,12.70
2022-11-22T13:06:55.307Z,15.40
2022-11-22T13:09:36.470Z,14.30
2022-11-22T13:12:26.756Z,12.60
2022-11-22T13:14:59.227Z,14.10
2022-11-22T13:17:38.983Z,13.80
2022-11-22T13:20:20.974Z,12.40
2022-11-22T13:23:20.368Z,14.60
2022-11-22T13:26:17.229Z,14.90
2022-11-22T13:28:46.680Z,15.60
2022-11-22T13:31:18.977Z,13.30
2022-11-22T13:34:01.903Z,13.20
2022-11-22T13:36:30.803Z,17.70
2022-11-22T13:39:02.998Z,19.50
2022-11-22T13:41:42.077Z,16.60
2022-11-22T13:44:52.163Z,14.60
2022-11-22T13:47:23.925Z,16.80
2022-11-22T13:49:54.418Z,13.30
2022-11-22T13:52:25.898Z,17.80
2022-11-22T13:54:57.234Z,17.60
2022-11-22T13:57:42.997Z,19.10
2022-11-22T14:00:11.922Z,19.90
2022-11-22T14:02:51.735Z,19.40
2022-11-22T14:05:36.552Z,18.90
2022-11-22T14:08:31.680Z,18.20
2022-11-22T14:11:26.440Z,17.00
2022-11-22T14:14:47.176Z,15.20
2022-11-22T14:17:30.812Z,17.40
2022-11-22T14:20:21.087Z,11.70
2022-11-22T14:22:56.422Z,14.70
2022-11-22T14:26:01.322Z,17.50
2022-11-22T14:29:01.411Z,19.20
2022-11-22T14:31:36.692Z,19.00
2022-11-22T14:34:23.541Z,18.50
2022-11-22T14:37:10.973Z,18.70
2022-11-22T14:39:45.505Z,18.60
2022-11-22T14:42:36.186Z,18.80
2022-11-22T14:45:10.831Z,22.50
2022-11-22T14:48:02.264Z,21.80
2022-11-22T14:50:36.751Z,20.10
2022-11-22T14:53:30.112Z,20.30
2022-11-22T14:56:05.433Z,19.70
2022-11-22T14:58:39.698Z,20.50
2022-11-22T15:01:27.675Z,20.10
2022-11-22T15:09:13.693Z,21.00
2022-11-22T15:09:21.467Z,20.80
2022-11-22T15:09:54.399Z,20.00
2022-11-22T15:12:46.826Z,21.50
2022-11-22T15:59:44.989Z,23.30
2022-11-22T16:02:19.254Z,20.50
2022-11-22T16:06:05.252Z,22.20
2022-11-22T16:07:48.476Z,22.00
2022-11-22T16:10:20.272Z,21.90
2022-11-22T16:12:49.895Z,22.90
2022-11-22T16:15:28.825Z,22.60
2022-11-22T16:18:24.980Z,23.70
2022-11-22T16:21:29.098Z,23.20
2022-11-22T16:24:20.349Z,23.20
2022-11-22T16:27:15.480Z,22.80
2022-11-22T16:29:51.476Z,21.60
2022-11-22T16:32:20.354Z,22.20
2022-11-22T16:34:59.002Z,22.80
2022-11-22T16:37:47.857Z,19.60
2022-11-22T16:40:18.172Z,21.80
2022-11-22T16:42:47.480Z,22.40
2022-11-22T16:45:19.170Z,20.70
2022-11-22T16:47:58.644Z,23.50
2022-11-22T16:50:39.342Z,22.80
2022-11-22T16:53:17.140Z,23.80
2022-11-22T16:55:46.024Z,24.70
2022-11-22T16:58:21.202Z,22.70
2022-11-22T17:00:51.170Z,19.70
2022-11-22T17:03:27.566Z,19.60
2022-11-22T17:05:56.358Z,19.10
2022-11-22T17:08:25.143Z,25.70
2022-11-22T17:10:53.712Z,20.50
2022-11-22T17:13:28.533Z,20.60
2022-11-22T17:15:58.143Z,17.40
2022-11-22T17:18:26.617Z,24.00
2022-11-22T17:20:55.349Z,26.50
2022-11-22T17:23:36.176Z,25.00
2022-11-22T17:26:06.312Z,25.40
2022-11-22T17:28:35.713Z,25.00
2022-11-22T17:31:13.850Z,18.30
2022-11-22T17:33:49.981Z,22.10
2022-11-22T17:36:33.300Z,20.10
2022-11-22T17:39:06.303Z,22.50
2022-11-22T17:41:35.794Z,24.60
2022-11-22T17:44:06.612Z,25.10
2022-11-22T17:46:39.148Z,24.00
2022-11-22T17:49:14.119Z,22.50
2022-11-22T17:51:47.035Z,21.20
2022-11-22T17:54:16.326Z,21.30
2022-11-22T17:56:46.678Z,21.20
2022-11-22T17:59:15.314Z,22.00
2022-11-22T18:01:44.978Z,22.10
2022-11-22T18:04:14.969Z,20.90
2022-11-22T18:06:44.819Z,21.80
2022-11-22T18:09:14.691Z,22.30
2022-11-22T18:11:46.179Z,24.20
2022-11-22T18:14:18.898Z,22.90
2022-11-22T18:16:50.158Z,23.00
2022-11-22T18:19:20.296Z,22.90
2022-11-22T18:21:50.601Z,22.30
2022-11-22T18:24:20.403Z,21.40
2022-11-22T18:26:52.951Z,30.10
2022-11-22T18:29:41.773Z,33.60
2022-11-22T18:32:13.494Z,24.20
2022-11-22T18:34:44.675Z,25.20
2022-11-22T18:37:15.301Z,26.70
2022-11-22T18:39:45.269Z,29.40
2022-11-22T18:42:17.505Z,27.00
2022-11-22T18:44:47.710Z,28.10
2022-11-22T18:47:17.916Z,26.20
2022-11-22T18:49:49.460Z,26.80
2022-11-22T18:52:23.652Z,26.00
2022-11-22T18:54:57.153Z,28.20
2022-11-22T18:57:29.805Z,34.80
2022-11-22T19:00:00.302Z,25.20
2022-11-22T19:02:30.728Z,22.80
2022-11-22T19:05:02.925Z,29.50
2022-11-22T19:07:33.384Z,25.00
2022-11-22T19:10:02.941Z,24.80
2022-11-22T19:12:32.648Z,25.90
2022-11-22T19:15:01.441Z,27.90
2022-11-22T19:17:31.650Z,31.10
2022-11-22T19:20:00.848Z,38.20
2022-11-22T19:22:30.863Z,34.50
2022-11-22T19:24:59.749Z,31.40
2022-11-22T19:27:28.566Z,28.40
2022-11-22T19:29:58.224Z,25.20
2022-11-22T19:32:28.261Z,25.30
2022-11-22T19:34:57.063Z,24.90
2022-11-22T19:37:25.834Z,24.70
2022-11-22T19:39:54.680Z,24.10
2022-11-22T19:42:23.785Z,24.70
2022-11-22T19:44:52.620Z,27.00
2022-11-22T19:47:21.626Z,28.80
2022-11-22T19:49:51.319Z,32.70
2022-11-22T19:52:21.007Z,30.80
2022-11-22T19:54:51.424Z,28.40
2022-11-22T19:57:22.749Z,34.20
2022-11-22T19:59:59.909Z,32.90
2022-11-22T20:02:30.685Z,30.80
2022-11-22T20:05:00.376Z,28.40
2022-11-22T20:07:30.416Z,33.10
2022-11-22T20:09:59.952Z,30.00
2022-11-22T20:12:29.966Z,28.40
2022-11-22T20:14:59.083Z,25.30
2022-11-22T20:17:30.801Z,28.10
2022-11-22T20:20:01.137Z,28.50
2022-11-22T20:22:31.904Z,31.30
2022-11-22T20:25:02.646Z,31.50
2022-11-22T20:27:32.171Z,31.60
2022-11-22T20:30:01.848Z,31.70
2022-11-22T20:32:32.576Z,32.90
2022-11-22T20:35:02.286Z,29.10
2022-11-22T20:37:33.865Z,25.90
2022-11-22T20:40:05.246Z,24.30
2022-11-22T20:42:35.366Z,24.60
2022-11-22T20:45:09.323Z,25.00
2022-11-22T20:47:39.427Z,25.20
2022-11-22T20:50:09.689Z,24.80
2022-11-22T20:52:39.445Z,29.70
2022-11-22T20:55:11.074Z,31.30
2022-11-22T20:57:41.933Z,28.80
2022-11-22T21:00:12.711Z,24.00
2022-11-22T21:02:42.227Z,24.30
2022-11-22T21:05:12.520Z,24.80
2022-11-22T21:07:42.481Z,29.10
2022-11-22T21:10:12.786Z,28.10
2022-11-22T21:12:43.574Z,33.80
2022-11-22T21:15:16.031Z,28.20
2022-11-22T21:18:17.065Z,25.50
2022-11-22T21:20:37.548Z,25.20
2022-11-22T21:23:06.784Z,26.60
2022-11-22T21:25:36.595Z,28.20
2022-11-22T21:28:07.210Z,27.50
2022-11-22T21:30:37.285Z,25.10
2022-11-22T21:33:06.492Z,23.40
2022-11-22T21:35:37.653Z,27.10
2022-11-22T21:38:06.606Z,28.60
2022-11-22T21:40:35.705Z,27.30
2022-11-22T21:43:04.561Z,27.60
2022-11-22T21:45:34.003Z,31.20
2022-11-22T21:48:04.936Z,29.20
2022-11-22T21:50:33.631Z,25.80
2022-11-22T21:53:02.644Z,25.20
2022-11-22T21:55:31.500Z,26.60
2022-11-22T21:58:01.270Z,28.60
2022-11-22T22:00:30.000Z,30.50
2022-11-22T22:02:58.608Z,26.30
2022-11-22T22:05:27.394Z,23.80
2022-11-22T22:07:55.902Z,24.80
2022-11-22T22:10:24.440Z,25.70
2022-11-22T22:12:53.023Z,24.90
2022-11-22T22:15:22.635Z,26.90
2022-11-22T22:17:55.717Z,26.40
2022-11-22T22:20:24.520Z,26.60
2022-11-22T22:22:53.095Z,27.10
2022-11-22T22:25:21.981Z,26.10
2022-11-22T22:27:50.478Z,29.30
2022-11-22T22:30:23.346Z,30.10
2022-11-22T22:32:52.249Z,29.70
2022-11-22T22:35:21.618Z,29.90
2022-11-22T22:37:50.335Z,27.00
2022-11-22T22:40:21.781Z,28.40
2022-11-22T22:42:50.876Z,27.10
2022-11-22T22:45:20.511Z,26.40
2022-11-22T22:47:49.176Z,27.80
2022-11-22T22:50:17.883Z,30.50
2022-11-22T22:52:46.394Z,38.10
2022-11-22T22:55:14.720Z,34.90
2022-11-22T22:57:42.910Z,30.10
2022-11-22T23:00:12.088Z,28.10
2022-11-22T23:02:41.253Z,24.80
2022-11-22T23:05:09.881Z,24.40
2022-11-22T23:07:43.699Z,25.10
2022-11-22T23:10:12.357Z,24.70
2022-11-22T23:12:40.710Z,26.10
2022-11-22T23:15:09.421Z,25.40
2022-11-22T23:17:37.796Z,24.40
2022-11-22T23:20:06.692Z,26.80
2022-11-22T23:22:34.940Z,24.90
2022-11-22T23:25:03.455Z,25.00
2022-11-22T23:27:32.045Z,25.20
2022-11-22T23:30:00.416Z,25.40
2022-11-22T23:32:32.069Z,24.40
2022-11-22T23:35:00.565Z,23.50
2022-11-22T23:37:28.999Z,24.40
2022-11-22T23:39:57.313Z,27.90
2022-11-22T23:42:25.595Z,28.50
2022-11-22T23:44:54.273Z,31.30
2022-11-22T23:47:23.884Z,33.20
2022-11-22T23:49:52.248Z,41.30
2022-11-22T23:52:20.639Z,26.20
2022-11-22T23:54:48.986Z,27.90
2022-11-22T23:57:17.386Z,25.70
2022-11-22T23:59:45.885Z,35.90
